sensor_id;sensor_type;location;lat;lon;timestamp;P1;durP1;ratioP1;P2;durP2;ratioP2
32399;SDS011;45045;45.440;9.178;2022-08-11T00:00:09;8.73;;;3.05;;
32399;SDS011;45045;45.440;9.178;2022-08-11T00:02:38;9.35;;;3.40;;
32399;SDS011;45045;45.440;9.178;2022-08-11T00:07:33;10.07;;;3.60;;
32399;SDS011;45045;45.440;9.178;2022-08-11T00:10:15;8.25;;;3.35;;
32399;SDS011;45045;45.440;9.178;2022-08-11T00:12:43;9.13;;;3.65;;
32399;SDS011;45045;45.440;9.178;2022-08-11T00:15:20;7.93;;;3.17;;
32399;SDS011;45045;45.440;9.178;2022-08-11T00:17:47;9.40;;;3.22;;
32399;SDS011;45045;45.440;9.178;2022-08-11T00:20:14;7.10;;;2.88;;
32399;SDS011;45045;45.440;9.178;2022-08-11T00:22:42;5.13;;;2.90;;
32399;SDS011;45045;45.440;9.178;2022-08-11T00:27:40;9.60;;;3.20;;
32399;SDS011;45045;45.440;9.178;2022-08-11T00:30:07;8.10;;;2.55;;
32399;SDS011;45045;45.440;9.178;2022-08-11T00:32:36;8.32;;;2.15;;
32399;SDS011;45045;45.440;9.178;2022-08-11T00:35:03;4.43;;;1.50;;
32399;SDS011;45045;45.440;9.178;2022-08-11T00:37:31;7.45;;;1.98;;
32399;SDS011;45045;45.440;9.178;2022-08-11T00:39:57;4.97;;;1.65;;
32399;SDS011;45045;45.440;9.178;2022-08-11T00:43:14;2.90;;;1.38;;
32399;SDS011;45045;45.440;9.178;2022-08-11T00:45:39;6.32;;;1.50;;
32399;SDS011;45045;45.440;9.178;2022-08-11T00:50:51;2.83;;;1.30;;
32399;SDS011;45045;45.440;9.178;2022-08-11T01:01:47;3.65;;;1.20;;
32399;SDS011;45045;45.440;9.178;2022-08-11T01:04:28;3.63;;;1.23;;
32399;SDS011;45045;45.440;9.178;2022-08-11T01:07:36;3.50;;;1.20;;
32399;SDS011;45045;45.440;9.178;2022-08-11T01:19:07;3.97;;;1.45;;
32399;SDS011;45045;45.440;9.178;2022-08-11T01:28:16;3.13;;;1.30;;
32399;SDS011;45045;45.440;9.178;2022-08-11T01:30:57;5.47;;;1.33;;
32399;SDS011;45045;45.440;9.178;2022-08-11T01:54:19;3.17;;;1.40;;
32399;SDS011;45045;45.440;9.178;2022-08-11T01:56:52;3.65;;;1.50;;
32399;SDS011;45045;45.440;9.178;2022-08-11T01:59:33;5.85;;;1.63;;
32399;SDS011;45045;45.440;9.178;2022-08-11T02:07:29;4.35;;;1.55;;
32399;SDS011;45045;45.440;9.178;2022-08-11T02:15:44;6.18;;;1.88;;
32399;SDS011;45045;45.440;9.178;2022-08-11T02:18:22;3.97;;;1.70;;
32399;SDS011;45045;45.440;9.178;2022-08-11T02:21:12;4.55;;;1.80;;
32399;SDS011;45045;45.440;9.178;2022-08-11T02:24:10;6.03;;;1.92;;
32399;SDS011;45045;45.440;9.178;2022-08-11T02:26:49;6.22;;;1.70;;
32399;SDS011;45045;45.440;9.178;2022-08-11T02:29:37;7.63;;;1.60;;
32399;SDS011;45045;45.440;9.178;2022-08-11T02:32:18;5.22;;;1.88;;
32399;SDS011;45045;45.440;9.178;2022-08-11T02:35:24;6.30;;;1.90;;
32399;SDS011;45045;45.440;9.178;2022-08-11T02:57:42;4.47;;;1.65;;
32399;SDS011;45045;45.440;9.178;2022-08-11T03:00:15;3.60;;;1.63;;
32399;SDS011;45045;45.440;9.178;2022-08-11T03:05:51;5.05;;;1.88;;
32399;SDS011;45045;45.440;9.178;2022-08-11T03:11:38;7.65;;;1.65;;
32399;SDS011;45045;45.440;9.178;2022-08-11T03:15:01;3.85;;;1.75;;
32399;SDS011;45045;45.440;9.178;2022-08-11T03:23:36;4.00;;;1.70;;
32399;SDS011;45045;45.440;9.178;2022-08-11T03:28:55;3.90;;;1.42;;
32399;SDS011;45045;45.440;9.178;2022-08-11T03:32:04;4.43;;;1.40;;
32399;SDS011;45045;45.440;9.178;2022-08-11T03:34:36;4.78;;;1.73;;
32399;SDS011;45045;45.440;9.178;2022-08-11T03:37:15;4.05;;;1.55;;
32399;SDS011;45045;45.440;9.178;2022-08-11T03:42:57;5.55;;;1.75;;
32399;SDS011;45045;45.440;9.178;2022-08-11T03:45:29;3.83;;;1.48;;
32399;SDS011;45045;45.440;9.178;2022-08-11T04:07:18;3.75;;;1.70;;
32399;SDS011;45045;45.440;9.178;2022-08-11T04:15:54;5.40;;;1.60;;
32399;SDS011;45045;45.440;9.178;2022-08-11T04:24:37;4.45;;;1.77;;
32399;SDS011;45045;45.440;9.178;2022-08-11T04:35:12;4.68;;;1.70;;
32399;SDS011;45045;45.440;9.178;2022-08-11T04:40:48;5.93;;;1.77;;
32399;SDS011;45045;45.440;9.178;2022-08-11T04:46:20;5.95;;;1.95;;
32399;SDS011;45045;45.440;9.178;2022-08-11T04:58:11;4.75;;;1.98;;
32399;SDS011;45045;45.440;9.178;2022-08-11T05:15:17;3.80;;;1.60;;
32399;SDS011;45045;45.440;9.178;2022-08-11T05:18:08;5.93;;;2.05;;
32399;SDS011;45045;45.440;9.178;2022-08-11T05:21:03;5.85;;;1.95;;
32399;SDS011;45045;45.440;9.178;2022-08-11T05:24:02;4.97;;;1.80;;
32399;SDS011;45045;45.440;9.178;2022-08-11T05:26:51;4.35;;;2.20;;
32399;SDS011;45045;45.440;9.178;2022-08-11T05:32:24;4.18;;;1.90;;
32399;SDS011;45045;45.440;9.178;2022-08-11T05:35:23;6.75;;;1.88;;
32399;SDS011;45045;45.440;9.178;2022-08-11T05:38:08;5.65;;;2.15;;
32399;SDS011;45045;45.440;9.178;2022-08-11T05:40:58;4.25;;;1.90;;
32399;SDS011;45045;45.440;9.178;2022-08-11T05:43:44;4.78;;;1.90;;
32399;SDS011;45045;45.440;9.178;2022-08-11T05:46:36;4.35;;;1.90;;
32399;SDS011;45045;45.440;9.178;2022-08-11T05:49:28;4.43;;;1.65;;
32399;SDS011;45045;45.440;9.178;2022-08-11T05:52:14;4.50;;;1.65;;
32399;SDS011;45045;45.440;9.178;2022-08-11T05:55:06;5.43;;;1.95;;
32399;SDS011;45045;45.440;9.178;2022-08-11T05:57:56;4.18;;;1.60;;
32399;SDS011;45045;45.440;9.178;2022-08-11T06:00:25;6.07;;;1.80;;
32399;SDS011;45045;45.440;9.178;2022-08-11T06:02:52;5.97;;;2.20;;
32399;SDS011;45045;45.440;9.178;2022-08-11T06:05:20;4.22;;;1.92;;
32399;SDS011;45045;45.440;9.178;2022-08-11T06:07:47;6.88;;;1.77;;
32399;SDS011;45045;45.440;9.178;2022-08-11T06:10:14;7.00;;;1.95;;
32399;SDS011;45045;45.440;9.178;2022-08-11T06:12:59;5.68;;;2.05;;
32399;SDS011;45045;45.440;9.178;2022-08-11T06:15:26;5.07;;;1.75;;
32399;SDS011;45045;45.440;9.178;2022-08-11T06:17:54;5.75;;;2.13;;
32399;SDS011;45045;45.440;9.178;2022-08-11T06:20:20;8.30;;;2.25;;
32399;SDS011;45045;45.440;9.178;2022-08-11T06:22:54;5.32;;;1.90;;
32399;SDS011;45045;45.440;9.178;2022-08-11T06:25:22;5.53;;;2.08;;
32399;SDS011;45045;45.440;9.178;2022-08-11T06:27:59;6.75;;;2.30;;
32399;SDS011;45045;45.440;9.178;2022-08-11T06:30:37;7.07;;;2.15;;
32399;SDS011;45045;45.440;9.178;2022-08-11T06:33:09;7.97;;;2.17;;
32399;SDS011;45045;45.440;9.178;2022-08-11T06:41:20;5.32;;;2.13;;
32399;SDS011;45045;45.440;9.178;2022-08-11T06:46:38;7.90;;;1.85;;
32399;SDS011;45045;45.440;9.178;2022-08-11T06:49:06;6.88;;;2.03;;
32399;SDS011;45045;45.440;9.178;2022-08-11T06:51:57;5.95;;;1.75;;
32399;SDS011;45045;45.440;9.178;2022-08-11T06:54:33;5.57;;;1.88;;
32399;SDS011;45045;45.440;9.178;2022-08-11T06:57:05;7.25;;;2.15;;
32399;SDS011;45045;45.440;9.178;2022-08-11T06:59:54;7.20;;;1.70;;
32399;SDS011;45045;45.440;9.178;2022-08-11T07:02:44;6.30;;;1.90;;
32399;SDS011;45045;45.440;9.178;2022-08-11T07:14:07;4.88;;;1.90;;
32399;SDS011;45045;45.440;9.178;2022-08-11T07:16:53;6.05;;;2.03;;
32399;SDS011;45045;45.440;9.178;2022-08-11T07:19:26;9.60;;;2.08;;
32399;SDS011;45045;45.440;9.178;2022-08-11T07:22:12;6.65;;;2.17;;
32399;SDS011;45045;45.440;9.178;2022-08-11T07:24:59;5.20;;;2.00;;
32399;SDS011;45045;45.440;9.178;2022-08-11T07:27:51;3.22;;;1.80;;
32399;SDS011;45045;45.440;9.178;2022-08-11T07:30:47;5.93;;;1.95;;
32399;SDS011;45045;45.440;9.178;2022-08-11T07:33:18;6.38;;;1.80;;
32399;SDS011;45045;45.440;9.178;2022-08-11T07:35:53;6.15;;;1.85;;
32399;SDS011;45045;45.440;9.178;2022-08-11T07:38:22;5.57;;;1.83;;
32399;SDS011;45045;45.440;9.178;2022-08-11T07:41:11;6.78;;;1.67;;
32399;SDS011;45045;45.440;9.178;2022-08-11T07:43:48;8.70;;;2.15;;
32399;SDS011;45045;45.440;9.178;2022-08-11T07:46:18;9.18;;;1.80;;
32399;SDS011;45045;45.440;9.178;2022-08-11T07:49:04;6.95;;;1.70;;
32399;SDS011;45045;45.440;9.178;2022-08-11T07:51:50;6.07;;;1.52;;
32399;SDS011;45045;45.440;9.178;2022-08-11T07:54:36;4.28;;;1.67;;
32399;SDS011;45045;45.440;9.178;2022-08-11T07:57:03;4.78;;;2.05;;
32399;SDS011;45045;45.440;9.178;2022-08-11T07:59:51;7.15;;;2.22;;
32399;SDS011;45045;45.440;9.178;2022-08-11T08:02:37;3.53;;;1.70;;
32399;SDS011;45045;45.440;9.178;2022-08-11T08:05:22;5.05;;;1.98;;
32399;SDS011;45045;45.440;9.178;2022-08-11T08:08:07;8.27;;;1.90;;
32399;SDS011;45045;45.440;9.178;2022-08-11T08:10:52;4.28;;;2.10;;
32399;SDS011;45045;45.440;9.178;2022-08-11T08:13:38;6.65;;;1.60;;
32399;SDS011;45045;45.440;9.178;2022-08-11T08:16:24;5.05;;;2.03;;
32399;SDS011;45045;45.440;9.178;2022-08-11T08:19:12;6.68;;;1.95;;
32399;SDS011;45045;45.440;9.178;2022-08-11T08:21:40;4.80;;;1.83;;
32399;SDS011;45045;45.440;9.178;2022-08-11T08:24:07;9.80;;;1.45;;
32399;SDS011;45045;45.440;9.178;2022-08-11T08:26:34;4.35;;;1.40;;
32399;SDS011;45045;45.440;9.178;2022-08-11T08:29:19;5.65;;;1.40;;
32399;SDS011;45045;45.440;9.178;2022-08-11T08:32:05;4.55;;;1.80;;
32399;SDS011;45045;45.440;9.178;2022-08-11T08:34:33;3.47;;;1.60;;
32399;SDS011;45045;45.440;9.178;2022-08-11T08:37:00;5.07;;;1.92;;
32399;SDS011;45045;45.440;9.178;2022-08-11T08:39:26;5.68;;;1.70;;
32399;SDS011;45045;45.440;9.178;2022-08-11T08:41:53;6.22;;;2.05;;
32399;SDS011;45045;45.440;9.178;2022-08-11T08:44:21;6.05;;;1.30;;
32399;SDS011;45045;45.440;9.178;2022-08-11T08:46:49;5.43;;;1.52;;
32399;SDS011;45045;45.440;9.178;2022-08-11T08:49:24;5.60;;;1.40;;
32399;SDS011;45045;45.440;9.178;2022-08-11T08:51:56;5.53;;;1.52;;
32399;SDS011;45045;45.440;9.178;2022-08-11T08:54:29;6.32;;;1.60;;
32399;SDS011;45045;45.440;9.178;2022-08-11T08:56:59;4.53;;;1.60;;
32399;SDS011;45045;45.440;9.178;2022-08-11T08:59:28;7.55;;;1.52;;
32399;SDS011;45045;45.440;9.178;2022-08-11T09:02:00;9.20;;;1.60;;
32399;SDS011;45045;45.440;9.178;2022-08-11T09:04:30;3.58;;;1.30;;
32399;SDS011;45045;45.440;9.178;2022-08-11T09:06:57;4.45;;;1.33;;
32399;SDS011;45045;45.440;9.178;2022-08-11T09:09:31;4.30;;;1.48;;
32399;SDS011;45045;45.440;9.178;2022-08-11T09:11:57;4.75;;;1.30;;
32399;SDS011;45045;45.440;9.178;2022-08-11T09:14:26;3.28;;;1.27;;
32399;SDS011;45045;45.440;9.178;2022-08-11T09:17:22;5.68;;;1.60;;
32399;SDS011;45045;45.440;9.178;2022-08-11T09:19:50;6.03;;;1.30;;
32399;SDS011;45045;45.440;9.178;2022-08-11T09:22:30;7.05;;;1.55;;
32399;SDS011;45045;45.440;9.178;2022-08-11T09:25:18;3.63;;;1.35;;
32399;SDS011;45045;45.440;9.178;2022-08-11T09:28:03;5.15;;;1.60;;
32399;SDS011;45045;45.440;9.178;2022-08-11T09:30:31;3.22;;;1.40;;
32399;SDS011;45045;45.440;9.178;2022-08-11T09:32:58;3.92;;;1.30;;
32399;SDS011;45045;45.440;9.178;2022-08-11T09:35:29;5.03;;;1.27;;
32399;SDS011;45045;45.440;9.178;2022-08-11T09:37:57;8.65;;;1.55;;
32399;SDS011;45045;45.440;9.178;2022-08-11T09:40:44;7.88;;;1.52;;
32399;SDS011;45045;45.440;9.178;2022-08-11T09:43:12;9.70;;;1.80;;
32399;SDS011;45045;45.440;9.178;2022-08-11T09:45:59;5.78;;;1.90;;
32399;SDS011;45045;45.440;9.178;2022-08-11T09:48:26;4.30;;;1.50;;
32399;SDS011;45045;45.440;9.178;2022-08-11T09:50:58;5.28;;;1.52;;
32399;SDS011;45045;45.440;9.178;2022-08-11T09:53:26;6.10;;;1.60;;
32399;SDS011;45045;45.440;9.178;2022-08-11T09:55:55;4.70;;;1.40;;
32399;SDS011;45045;45.440;9.178;2022-08-11T09:58:21;4.75;;;1.80;;
32399;SDS011;45045;45.440;9.178;2022-08-11T10:00:48;4.20;;;1.63;;
32399;SDS011;45045;45.440;9.178;2022-08-11T10:03:15;5.68;;;1.52;;
32399;SDS011;45045;45.440;9.178;2022-08-11T10:05:43;3.78;;;1.60;;
32399;SDS011;45045;45.440;9.178;2022-08-11T10:08:29;6.90;;;1.92;;
32399;SDS011;45045;45.440;9.178;2022-08-11T10:10:59;6.15;;;1.60;;
32399;SDS011;45045;45.440;9.178;2022-08-11T10:13:29;6.82;;;1.75;;
32399;SDS011;45045;45.440;9.178;2022-08-11T10:16:21;4.93;;;1.40;;
32399;SDS011;45045;45.440;9.178;2022-08-11T10:18:50;4.35;;;1.73;;
32399;SDS011;45045;45.440;9.178;2022-08-11T10:21:35;8.27;;;1.70;;
32399;SDS011;45045;45.440;9.178;2022-08-11T10:24:01;6.47;;;1.40;;
32399;SDS011;45045;45.440;9.178;2022-08-11T10:26:48;5.43;;;1.85;;
32399;SDS011;45045;45.440;9.178;2022-08-11T10:29:35;5.13;;;1.95;;
32399;SDS011;45045;45.440;9.178;2022-08-11T10:32:21;6.07;;;1.90;;
32399;SDS011;45045;45.440;9.178;2022-08-11T10:35:07;4.05;;;1.75;;
32399;SDS011;45045;45.440;9.178;2022-08-11T10:37:36;6.10;;;1.90;;
32399;SDS011;45045;45.440;9.178;2022-08-11T10:40:03;4.90;;;1.85;;
32399;SDS011;45045;45.440;9.178;2022-08-11T10:42:31;5.22;;;1.80;;
32399;SDS011;45045;45.440;9.178;2022-08-11T10:45:16;4.57;;;1.90;;
32399;SDS011;45045;45.440;9.178;2022-08-11T10:48:01;8.02;;;1.83;;
32399;SDS011;45045;45.440;9.178;2022-08-11T10:50:30;4.13;;;1.73;;
32399;SDS011;45045;45.440;9.178;2022-08-11T10:53:16;10.38;;;2.47;;
32399;SDS011;45045;45.440;9.178;2022-08-11T10:56:02;7.45;;;1.98;;
32399;SDS011;45045;45.440;9.178;2022-08-11T10:58:47;3.42;;;1.83;;
32399;SDS011;45045;45.440;9.178;2022-08-11T11:01:30;3.38;;;1.77;;
32399;SDS011;45045;45.440;9.178;2022-08-11T11:04:01;5.30;;;1.92;;
32399;SDS011;45045;45.440;9.178;2022-08-11T11:09:11;3.50;;;1.80;;
32399;SDS011;45045;45.440;9.178;2022-08-11T11:11:44;6.22;;;1.92;;
32399;SDS011;45045;45.440;9.178;2022-08-11T11:14:36;7.65;;;1.80;;
32399;SDS011;45045;45.440;9.178;2022-08-11T11:17:31;3.15;;;1.35;;
32399;SDS011;45045;45.440;9.178;2022-08-11T11:21:04;5.13;;;1.50;;
32399;SDS011;45045;45.440;9.178;2022-08-11T11:28:37;5.90;;;1.75;;
32399;SDS011;45045;45.440;9.178;2022-08-11T11:34:34;4.70;;;1.80;;
32399;SDS011;45045;45.440;9.178;2022-08-11T11:37:23;5.50;;;1.77;;
32399;SDS011;45045;45.440;9.178;2022-08-11T11:39:49;4.90;;;1.70;;
32399;SDS011;45045;45.440;9.178;2022-08-11T11:42:17;7.10;;;1.77;;
32399;SDS011;45045;45.440;9.178;2022-08-11T11:44:44;5.20;;;1.50;;
32399;SDS011;45045;45.440;9.178;2022-08-11T11:47:11;5.28;;;1.38;;
32399;SDS011;45045;45.440;9.178;2022-08-11T11:49:40;3.85;;;1.40;;
32399;SDS011;45045;45.440;9.178;2022-08-11T11:52:08;6.28;;;1.70;;
32399;SDS011;45045;45.440;9.178;2022-08-11T11:54:38;4.97;;;1.52;;
32399;SDS011;45045;45.440;9.178;2022-08-11T11:57:05;6.00;;;1.60;;
32399;SDS011;45045;45.440;9.178;2022-08-11T11:59:50;6.55;;;1.63;;
32399;SDS011;45045;45.440;9.178;2022-08-11T12:02:36;5.47;;;1.50;;
32399;SDS011;45045;45.440;9.178;2022-08-11T12:05:04;4.35;;;1.60;;
32399;SDS011;45045;45.440;9.178;2022-08-11T12:07:31;6.40;;;1.50;;
32399;SDS011;45045;45.440;9.178;2022-08-11T12:10:17;3.63;;;1.40;;
32399;SDS011;45045;45.440;9.178;2022-08-11T12:12:43;4.40;;;1.73;;
32399;SDS011;45045;45.440;9.178;2022-08-11T12:15:28;5.93;;;1.50;;
32399;SDS011;45045;45.440;9.178;2022-08-11T12:17:55;4.88;;;1.83;;
32399;SDS011;45045;45.440;9.178;2022-08-11T12:20:22;4.97;;;1.60;;
32399;SDS011;45045;45.440;9.178;2022-08-11T12:22:48;3.05;;;1.38;;
32399;SDS011;45045;45.440;9.178;2022-08-11T12:25:33;3.10;;;1.58;;
32399;SDS011;45045;45.440;9.178;2022-08-11T12:28:18;4.65;;;1.60;;
32399;SDS011;45045;45.440;9.178;2022-08-11T12:30:47;3.42;;;1.23;;
32399;SDS011;45045;45.440;9.178;2022-08-11T12:33:15;4.15;;;1.30;;
32399;SDS011;45045;45.440;9.178;2022-08-11T12:35:42;4.80;;;1.40;;
32399;SDS011;45045;45.440;9.178;2022-08-11T12:38:08;4.43;;;1.60;;
32399;SDS011;45045;45.440;9.178;2022-08-11T12:40:34;4.65;;;1.75;;
32399;SDS011;45045;45.440;9.178;2022-08-11T12:43:21;3.25;;;1.40;;
32399;SDS011;45045;45.440;9.178;2022-08-11T12:46:11;5.07;;;1.48;;
32399;SDS011;45045;45.440;9.178;2022-08-11T12:48:44;3.00;;;1.42;;
32399;SDS011;45045;45.440;9.178;2022-08-11T12:51:35;4.72;;;1.42;;
32399;SDS011;45045;45.440;9.178;2022-08-11T12:54:27;6.90;;;1.77;;
32399;SDS011;45045;45.440;9.178;2022-08-11T12:57:07;4.82;;;1.63;;
32399;SDS011;45045;45.440;9.178;2022-08-11T12:59:57;4.07;;;1.55;;
32399;SDS011;45045;45.440;9.178;2022-08-11T13:02:43;5.13;;;1.65;;
32399;SDS011;45045;45.440;9.178;2022-08-11T13:05:30;4.40;;;2.00;;
32399;SDS011;45045;45.440;9.178;2022-08-11T13:07:57;4.53;;;1.63;;
32399;SDS011;45045;45.440;9.178;2022-08-11T13:10:27;10.52;;;2.05;;
32399;SDS011;45045;45.440;9.178;2022-08-11T13:13:14;3.30;;;1.63;;
32399;SDS011;45045;45.440;9.178;2022-08-11T13:15:41;5.93;;;1.33;;
32399;SDS011;45045;45.440;9.178;2022-08-11T13:18:09;5.03;;;1.70;;
32399;SDS011;45045;45.440;9.178;2022-08-11T13:20:39;6.47;;;1.30;;
32399;SDS011;45045;45.440;9.178;2022-08-11T13:23:05;6.10;;;1.75;;
32399;SDS011;45045;45.440;9.178;2022-08-11T13:25:31;5.05;;;1.45;;
32399;SDS011;45045;45.440;9.178;2022-08-11T13:27:58;6.60;;;1.83;;
32399;SDS011;45045;45.440;9.178;2022-08-11T13:30:25;6.70;;;1.60;;
32399;SDS011;45045;45.440;9.178;2022-08-11T13:33:13;3.97;;;1.48;;
32399;SDS011;45045;45.440;9.178;2022-08-11T13:35:44;2.90;;;1.23;;
32399;SDS011;45045;45.440;9.178;2022-08-11T13:38:13;4.63;;;1.65;;
32399;SDS011;45045;45.440;9.178;2022-08-11T13:40:43;6.93;;;1.50;;
32399;SDS011;45045;45.440;9.178;2022-08-11T13:43:12;5.30;;;1.55;;
32399;SDS011;45045;45.440;9.178;2022-08-11T13:45:38;7.05;;;1.58;;
32399;SDS011;45045;45.440;9.178;2022-08-11T13:48:08;4.30;;;1.48;;
32399;SDS011;45045;45.440;9.178;2022-08-11T13:50:34;4.07;;;1.50;;
32399;SDS011;45045;45.440;9.178;2022-08-11T13:53:21;3.05;;;1.58;;
32399;SDS011;45045;45.440;9.178;2022-08-11T13:55:49;5.22;;;1.42;;
32399;SDS011;45045;45.440;9.178;2022-08-11T13:58:14;4.45;;;1.77;;
32399;SDS011;45045;45.440;9.178;2022-08-11T14:00:43;6.35;;;1.42;;
32399;SDS011;45045;45.440;9.178;2022-08-11T14:03:12;6.47;;;1.77;;
32399;SDS011;45045;45.440;9.178;2022-08-11T14:05:40;4.75;;;1.60;;
32399;SDS011;45045;45.440;9.178;2022-08-11T14:08:11;6.68;;;1.80;;
32399;SDS011;45045;45.440;9.178;2022-08-11T14:10:40;3.90;;;1.60;;
32399;SDS011;45045;45.440;9.178;2022-08-11T14:13:11;9.45;;;1.60;;
32399;SDS011;45045;45.440;9.178;2022-08-11T14:15:59;4.70;;;1.83;;
32399;SDS011;45045;45.440;9.178;2022-08-11T14:18:29;2.13;;;1.20;;
32399;SDS011;45045;45.440;9.178;2022-08-11T14:20:57;3.72;;;1.25;;
32399;SDS011;45045;45.440;9.178;2022-08-11T14:23:47;6.78;;;1.48;;
32399;SDS011;45045;45.440;9.178;2022-08-11T14:26:19;6.18;;;1.25;;
32399;SDS011;45045;45.440;9.178;2022-08-11T14:31:19;3.10;;;1.40;;
32399;SDS011;45045;45.440;9.178;2022-08-11T14:33:46;6.22;;;1.50;;
32399;SDS011;45045;45.440;9.178;2022-08-11T14:36:12;7.28;;;1.50;;
32399;SDS011;45045;45.440;9.178;2022-08-11T14:38:39;5.03;;;1.35;;
32399;SDS011;45045;45.440;9.178;2022-08-11T14:41:06;5.72;;;1.88;;
32399;SDS011;45045;45.440;9.178;2022-08-11T14:43:51;4.57;;;1.30;;
32399;SDS011;45045;45.440;9.178;2022-08-11T14:46:38;5.00;;;1.40;;
32399;SDS011;45045;45.440;9.178;2022-08-11T14:49:24;5.53;;;1.55;;
32399;SDS011;45045;45.440;9.178;2022-08-11T14:51:51;5.95;;;1.35;;
32399;SDS011;45045;45.440;9.178;2022-08-11T14:54:21;5.35;;;1.63;;
32399;SDS011;45045;45.440;9.178;2022-08-11T14:57:08;5.20;;;1.60;;
32399;SDS011;45045;45.440;9.178;2022-08-11T14:59:34;4.65;;;1.63;;
32399;SDS011;45045;45.440;9.178;2022-08-11T15:02:02;6.35;;;1.65;;
32399;SDS011;45045;45.440;9.178;2022-08-11T15:04:47;5.50;;;1.50;;
32399;SDS011;45045;45.440;9.178;2022-08-11T15:07:14;5.85;;;1.40;;
32399;SDS011;45045;45.440;9.178;2022-08-11T15:09:40;3.47;;;1.40;;
32399;SDS011;45045;45.440;9.178;2022-08-11T15:12:11;6.85;;;1.70;;
32399;SDS011;45045;45.440;9.178;2022-08-11T15:14:43;5.30;;;1.50;;
32399;SDS011;45045;45.440;9.178;2022-08-11T15:17:29;6.25;;;1.48;;
32399;SDS011;45045;45.440;9.178;2022-08-11T15:19:58;4.07;;;1.40;;
32399;SDS011;45045;45.440;9.178;2022-08-11T15:22:46;5.68;;;1.40;;
32399;SDS011;45045;45.440;9.178;2022-08-11T15:25:31;4.28;;;1.40;;
32399;SDS011;45045;45.440;9.178;2022-08-11T15:27:59;7.68;;;1.65;;
32399;SDS011;45045;45.440;9.178;2022-08-11T15:30:46;4.95;;;1.40;;
32399;SDS011;45045;45.440;9.178;2022-08-11T15:33:33;5.25;;;1.45;;
32399;SDS011;45045;45.440;9.178;2022-08-11T15:36:19;5.88;;;1.60;;
32399;SDS011;45045;45.440;9.178;2022-08-11T15:39:11;3.50;;;1.17;;
32399;SDS011;45045;45.440;9.178;2022-08-11T15:41:49;4.03;;;1.40;;
32399;SDS011;45045;45.440;9.178;2022-08-11T15:44:42;4.18;;;1.52;;
32399;SDS011;45045;45.440;9.178;2022-08-11T15:47:39;5.72;;;1.42;;
32399;SDS011;45045;45.440;9.178;2022-08-11T15:50:13;7.20;;;1.50;;
32399;SDS011;45045;45.440;9.178;2022-08-11T15:52:45;6.05;;;1.60;;
32399;SDS011;45045;45.440;9.178;2022-08-11T15:55:20;6.32;;;1.80;;
32399;SDS011;45045;45.440;9.178;2022-08-11T15:57:48;5.18;;;1.42;;
32399;SDS011;45045;45.440;9.178;2022-08-11T16:00:37;9.30;;;1.83;;
32399;SDS011;45045;45.440;9.178;2022-08-11T16:03:24;8.35;;;1.50;;
32399;SDS011;45045;45.440;9.178;2022-08-11T16:06:10;5.18;;;1.50;;
32399;SDS011;45045;45.440;9.178;2022-08-11T16:08:38;8.15;;;1.80;;
32399;SDS011;45045;45.440;9.178;2022-08-11T16:11:06;7.85;;;1.52;;
32399;SDS011;45045;45.440;9.178;2022-08-11T16:13:33;3.72;;;1.60;;
32399;SDS011;45045;45.440;9.178;2022-08-11T16:16:00;9.25;;;1.33;;
32399;SDS011;45045;45.440;9.178;2022-08-11T16:18:51;2.70;;;1.45;;
32399;SDS011;45045;45.440;9.178;2022-08-11T16:21:26;6.25;;;1.40;;
32399;SDS011;45045;45.440;9.178;2022-08-11T16:23:57;8.00;;;1.70;;
32399;SDS011;45045;45.440;9.178;2022-08-11T16:26:24;5.57;;;1.55;;
32399;SDS011;45045;45.440;9.178;2022-08-11T16:28:57;3.97;;;1.55;;
32399;SDS011;45045;45.440;9.178;2022-08-11T16:31:25;6.65;;;1.80;;
32399;SDS011;45045;45.440;9.178;2022-08-11T16:33:53;4.10;;;1.55;;
32399;SDS011;45045;45.440;9.178;2022-08-11T16:36:22;6.45;;;1.60;;
32399;SDS011;45045;45.440;9.178;2022-08-11T16:39:08;3.28;;;1.33;;
32399;SDS011;45045;45.440;9.178;2022-08-11T16:41:36;6.40;;;1.63;;
32399;SDS011;45045;45.440;9.178;2022-08-11T16:44:23;5.22;;;1.48;;
32399;SDS011;45045;45.440;9.178;2022-08-11T16:47:13;4.57;;;1.27;;
32399;SDS011;45045;45.440;9.178;2022-08-11T16:49:43;5.95;;;1.83;;
32399;SDS011;45045;45.440;9.178;2022-08-11T16:52:12;5.22;;;1.60;;
32399;SDS011;45045;45.440;9.178;2022-08-11T16:54:39;4.13;;;1.40;;
32399;SDS011;45045;45.440;9.178;2022-08-11T16:57:12;5.32;;;1.60;;
32399;SDS011;45045;45.440;9.178;2022-08-11T17:00:03;4.53;;;1.38;;
32399;SDS011;45045;45.440;9.178;2022-08-11T17:02:31;7.63;;;1.80;;
32399;SDS011;45045;45.440;9.178;2022-08-11T17:05:18;9.73;;;1.90;;
32399;SDS011;45045;45.440;9.178;2022-08-11T17:08:06;3.90;;;1.48;;
32399;SDS011;45045;45.440;9.178;2022-08-11T17:10:54;4.80;;;1.60;;
32399;SDS011;45045;45.440;9.178;2022-08-11T17:13:41;3.97;;;1.67;;
32399;SDS011;45045;45.440;9.178;2022-08-11T17:16:13;5.63;;;1.58;;
32399;SDS011;45045;45.440;9.178;2022-08-11T17:23:40;6.77;;;1.57;;
32399;SDS011;45045;45.440;9.178;2022-08-11T17:26:20;4.97;;;1.40;;
32399;SDS011;45045;45.440;9.178;2022-08-11T17:29:20;4.78;;;1.33;;
32399;SDS011;45045;45.440;9.178;2022-08-11T17:31:53;4.30;;;1.50;;
32399;SDS011;45045;45.440;9.178;2022-08-11T17:34:39;5.00;;;1.33;;
32399;SDS011;45045;45.440;9.178;2022-08-11T17:37:27;6.00;;;1.77;;
32399;SDS011;45045;45.440;9.178;2022-08-11T17:39:57;3.60;;;1.40;;
32399;SDS011;45045;45.440;9.178;2022-08-11T17:42:27;4.85;;;1.98;;
32399;SDS011;45045;45.440;9.178;2022-08-11T17:45:13;3.83;;;1.25;;
32399;SDS011;45045;45.440;9.178;2022-08-11T17:48:01;6.88;;;1.55;;
32399;SDS011;45045;45.440;9.178;2022-08-11T17:50:47;7.28;;;1.95;;
32399;SDS011;45045;45.440;9.178;2022-08-11T17:53:14;9.38;;;2.35;;
32399;SDS011;45045;45.440;9.178;2022-08-11T17:56:00;6.03;;;1.63;;
32399;SDS011;45045;45.440;9.178;2022-08-11T17:58:46;9.30;;;1.40;;
32399;SDS011;45045;45.440;9.178;2022-08-11T18:01:32;5.25;;;1.45;;
32399;SDS011;45045;45.440;9.178;2022-08-11T18:04:01;6.70;;;1.70;;
32399;SDS011;45045;45.440;9.178;2022-08-11T18:06:30;7.22;;;1.80;;
32399;SDS011;45045;45.440;9.178;2022-08-11T18:08:58;5.50;;;1.67;;
32399;SDS011;45045;45.440;9.178;2022-08-11T18:11:44;5.55;;;1.35;;
32399;SDS011;45045;45.440;9.178;2022-08-11T18:14:32;5.15;;;1.58;;
32399;SDS011;45045;45.440;9.178;2022-08-11T18:17:18;5.63;;;1.30;;
32399;SDS011;45045;45.440;9.178;2022-08-11T18:20:03;7.40;;;1.67;;
32399;SDS011;45045;45.440;9.178;2022-08-11T18:22:48;6.80;;;1.40;;
32399;SDS011;45045;45.440;9.178;2022-08-11T18:25:38;7.05;;;1.80;;
32399;SDS011;45045;45.440;9.178;2022-08-11T18:28:26;5.75;;;1.55;;
32399;SDS011;45045;45.440;9.178;2022-08-11T18:31:15;5.03;;;1.50;;
32399;SDS011;45045;45.440;9.178;2022-08-11T18:34:01;4.28;;;1.40;;
32399;SDS011;45045;45.440;9.178;2022-08-11T18:40:13;6.93;;;1.90;;
32399;SDS011;45045;45.440;9.178;2022-08-11T18:43:06;4.60;;;1.65;;
32399;SDS011;45045;45.440;9.178;2022-08-11T18:45:52;4.95;;;1.60;;
32399;SDS011;45045;45.440;9.178;2022-08-11T18:48:45;7.57;;;1.73;;
32399;SDS011;45045;45.440;9.178;2022-08-11T18:51:35;6.55;;;1.60;;
32399;SDS011;45045;45.440;9.178;2022-08-11T18:54:20;6.68;;;1.65;;
32399;SDS011;45045;45.440;9.178;2022-08-11T18:57:07;5.47;;;1.75;;
32399;SDS011;45045;45.440;9.178;2022-08-11T18:59:53;6.15;;;1.33;;
32399;SDS011;45045;45.440;9.178;2022-08-11T19:02:42;7.35;;;3.85;;
32399;SDS011;45045;45.440;9.178;2022-08-11T19:05:29;7.20;;;1.88;;
32399;SDS011;45045;45.440;9.178;2022-08-11T19:08:15;6.03;;;1.45;;
32399;SDS011;45045;45.440;9.178;2022-08-11T19:11:02;3.47;;;1.30;;
32399;SDS011;45045;45.440;9.178;2022-08-11T19:13:47;5.40;;;1.60;;
32399;SDS011;45045;45.440;9.178;2022-08-11T19:16:33;4.72;;;1.60;;
32399;SDS011;45045;45.440;9.178;2022-08-11T19:19:19;5.65;;;1.90;;
32399;SDS011;45045;45.440;9.178;2022-08-11T19:22:04;5.40;;;2.10;;